Time;durP1;ratioP1;P1;durP2;ratioP2;P2;SDS_P1;SDS_P2;PMS_P1;PMS_P2;Temp;Humidity;BMP_temperature;BMP_pressure;BME280_temperature;BME280_humidity;BME280_pressure;Samples;Min_cycle;Max_cycle;Signal;HPM_P1;HPM_P2
2021/01/04 00:02:23;;;;;;;;;;;;;;;;;;4393457;32;20004;-70
2021/01/04 00:04:54;;;;;;;;;;;;;;;;;;4380772;32;20420;-70
2021/01/04 00:07:20;;;;;;;;;;;;;;;;;;4368264;32;19980;-70
2021/01/04 00:10:04;;;;;;;;;;;;;;;;;;4380671;32;20005;-70
2021/01/04 00:12:30;;;;;;;;;;;;;;;;;;4393352;32;19996;-71
2021/01/04 00:15:12;;;;;;;;;;;;;;;;;;4407273;32;19977;-71
2021/01/04 00:17:56;;;;;;;;;;;;;;;;;;4393304;32;19985;-72
2021/01/04 00:20:28;;;;;;;;;;;;;;;;;;4407638;32;19985;-71
2021/01/04 00:23:13;;;;;;;;;;;;;;;;;;4407238;32;20465;-70
2021/01/04 00:26:14;;;;;;;;;;;;;;;;;;4407376;32;19973;-71
2021/01/04 00:28:39;;;;;;;;;;;;;;;;;;4329986;33;20062;-71
2021/01/04 00:31:10;;;;;;;;;;;;;;;;;;4364705;32;19996;-70
2021/01/04 00:33:40;;;;;;;;;;;;;;;;;;4392878;32;19969;-69
2021/01/04 00:36:10;;;;;;;;;;;;;;;;;;4380480;32;20118;-70
2021/01/04 00:38:39;;;;;;;;;;;;;;;;;;4367880;32;19976;-70
2021/01/04 00:41:17;;;;;;;;;;;;;;;;;;4392777;32;19974;-70
2021/01/04 00:43:44;;;;;;;;;;;;;;;;;;4392879;32;20024;-70
2021/01/04 00:46:10;;;;;;;;;;;;;;;;;;4367987;32;20003;-70
2021/01/04 00:48:37;;;;;;;;;;;;;;;;;;4367710;32;19969;-71
2021/01/04 00:51:06;;;;;;;;;;;;;;;;;;4380204;32;20062;-71
2021/01/04 00:53:39;;;;;;;;;;;;;;;;;;4392942;32;19977;-70
2021/01/04 00:56:08;;;;;;;;;;;;;;;;;;4380275;32;20385;-70
2021/01/04 00:58:52;;;;;;;;;;;;;;;;;;4393108;32;19977;-71
2021/01/04 01:01:20;;;;;;;;;;;;;;;;;;4407416;32;19981;-70
2021/01/04 01:03:55;;;;;;;;;;;;;;;;;;4407161;32;19989;-70
2021/01/04 01:06:29;;;;;;;;;;;;;;;;;;4407253;32;19981;-71
2021/01/04 01:08:55;;;;;;;;;;;;;;;;;;4380752;32;20077;-70
2021/01/04 01:11:30;;;;;;;;;;;;;;;;;;4392339;32;20066;-69
2021/01/04 01:14:02;;;;;;;;;;;;;;;;;;4380131;32;19984;-70
2021/01/04 01:16:33;;;;;;;;;;;;;;;;;;4406948;32;20424;-70
2021/01/04 01:19:13;;;;;;;;;;;;;;;;;;4406795;32;19983;-71
2021/01/04 01:21:39;;;;;;;;;;;;;;;;;;4380029;32;20468;-71
2021/01/04 01:24:05;;;;;;;;;;;;;;;;;;4392461;32;19992;-71
2021/01/04 01:26:36;;;;;;;;;;;;;;;;;;4392421;32;19969;-71
2021/01/04 01:29:02;;;;;;;;;;;;;;;;;;4407076;32;20441;-71
2021/01/04 01:31:28;;;;;;;;;;;;;;;;;;4393110;32;19977;-70
2021/01/04 01:33:53;;;;;;;;;;;;;;;;;;4407095;32;19987;-70
2021/01/04 01:36:38;;;;;;;;;;;;;;;;;;4407141;32;19985;-70
2021/01/04 01:39:03;;;;;;;;;;;;;;;;;;4407607;32;20009;-70
2021/01/04 01:41:38;;;;;;;;;;;;;;;;;;4412165;32;20465;-70
2021/01/04 01:44:03;;;;;;;;;;;;;;;;;;4413640;32;20119;-71
2021/01/04 01:46:32;;;;;;;;;;;;;;;;;;4412417;32;19988;-70
2021/01/04 01:49:03;;;;;;;;;;;;;;;;;;4387651;32;20055;-70
2021/01/04 01:51:29;;;;;;;;;;;;;;;;;;4404154;32;20058;-71
2021/01/04 01:54:15;;;;;;;;;;;;;;;;;;4393863;32;20425;-71
2021/01/04 01:56:59;;;;;;;;;;;;;;;;;;4381816;32;19992;-71
2021/01/04 01:59:35;;;;;;;;;;;;;;;;;;4397598;32;20044;-71
2021/01/04 02:02:00;;;;;;;;;;;;;;;;;;4381259;32;20360;-69
2021/01/04 02:04:26;;;;;;;;;;;;;;;;;;4382216;32;19972;-71
2021/01/04 02:06:52;;;;;;;;;;;;;;;;;;4396141;32;19989;-70
2021/01/04 02:09:25;;;;;;;;;;;;;;;;;;4395961;32;20403;-71
2021/01/04 02:12:05;;;;;;;;;;;;;;;;;;4381534;32;19970;-70
2021/01/04 02:14:46;;;;;;;;;;;;;;;;;;4370710;32;20422;-70
2021/01/04 02:17:29;;;;;;;;;;;;;;;;;;4357340;32;19986;-70
2021/01/04 02:20:24;;;;;;;;;;;;;;;;;;4368170;32;19977;-71
2021/01/04 02:22:52;;;;;;;;;;;;;;;;;;4379833;32;19978;-71
2021/01/04 02:25:18;;;;;;;;;;;;;;;;;;4379884;32;20000;-69
2021/01/04 02:27:48;;;;;;;;;;;;;;;;;;4379957;32;20371;-71
2021/01/04 02:30:14;;;;;;;;;;;;;;;;;;4380392;32;20399;-71
2021/01/04 02:32:40;;;;;;;;;;;;;;;;;;4369857;32;19970;-70
2021/01/04 02:35:05;;;;;;;;;;;;;;;;;;4392622;32;20441;-72
2021/01/04 02:37:31;;;;;;;;;;;;;;;;;;4392865;32;20008;-71
2021/01/04 02:39:56;;;;;;;;;;;;;;;;;;4379989;32;19977;-71
2021/01/04 02:42:24;;;;;;;;;;;;;;;;;;4394182;32;19989;-72
2021/01/04 02:44:50;;;;;;;;;;;;;;;;;;4367677;32;20040;-70
2021/01/04 02:47:31;;;;;;;;;;;;;;;;;;4393905;32;20384;-71
2021/01/04 02:50:15;;;;;;;;;;;;;;;;;;4408552;32;19994;-70
2021/01/04 02:52:59;;;;;;;;;;;;;;;;;;4381644;32;20436;-71
2021/01/04 02:55:48;;;;;;;;;;;;;;;;;;4408340;32;19997;-70
2021/01/04 02:58:20;;;;;;;;;;;;;;;;;;4359523;32;20052;-70
2021/01/04 03:00:47;;;;;;;;;;;;;;;;;;4382185;32;19973;-70
2021/01/04 03:03:13;;;;;;;;;;;;;;;;;;4382168;32;20069;-70
2021/01/04 03:05:38;;;;;;;;;;;;;;;;;;4394683;32;20380;-71
2021/01/04 03:08:04;;;;;;;;;;;;;;;;;;4394697;32;20356;-71
2021/01/04 03:10:31;;;;;;;;;;;;;;;;;;4394152;32;20371;-71
2021/01/04 03:13:03;;;;;;;;;;;;;;;;;;4369161;32;20044;-71
2021/01/04 03:15:31;;;;;;;;;;;;;;;;;;4408878;32;19977;-70
2021/01/04 03:18:16;;;;;;;;;;;;;;;;;;4408620;32;19974;-70
2021/01/04 03:20:41;;;;;;;;;;;;;;;;;;4408573;32;20057;-71
2021/01/04 03:23:07;;;;;;;;;;;;;;;;;;4395322;32;19974;-70
2021/01/04 03:25:32;;;;;;;;;;;;;;;;;;4383309;32;19978;-72
2021/01/04 03:27:59;;;;;;;;;;;;;;;;;;4409679;32;19981;-70
2021/01/04 03:30:25;;;;;;;;;;;;;;;;;;4383437;32;19970;-70
2021/01/04 03:32:50;;;;;;;;;;;;;;;;;;4410767;32;19976;-70
2021/01/04 03:35:16;;;;;;;;;;;;;;;;;;4410865;32;19992;-70
2021/01/04 03:37:41;;;;;;;;;;;;;;;;;;4368839;32;20432;-70
2021/01/04 03:40:07;;;;;;;;;;;;;;;;;;4381174;32;19989;-71
2021/01/04 03:42:33;;;;;;;;;;;;;;;;;;4394308;32;20399;-71
2021/01/04 03:44:58;;;;;;;;;;;;;;;;;;4393979;32;19989;-71
2021/01/04 03:47:24;;;;;;;;;;;;;;;;;;4394440;32;20357;-71
2021/01/04 03:49:49;;;;;;;;;;;;;;;;;;4366242;32;19973;-71
2021/01/04 03:52:15;;;;;;;;;;;;;;;;;;4366297;32;20339;-70
2021/01/04 03:54:41;;;;;;;;;;;;;;;;;;4365886;32;19974;-71
2021/01/04 03:57:07;;;;;;;;;;;;;;;;;;4354392;32;19992;-72
2021/01/04 03:59:32;;;;;;;;;;;;;;;;;;4378921;32;20430;-71
2021/01/04 04:01:58;;;;;;;;;;;;;;;;;;4392456;32;20367;-70
2021/01/04 04:04:24;;;;;;;;;;;;;;;;;;4392278;32;20363;-71
2021/01/04 04:06:49;;;;;;;;;;;;;;;;;;4365686;32;20368;-69
2021/01/04 04:09:15;;;;;;;;;;;;;;;;;;4365716;32;19996;-70
2021/01/04 04:11:41;;;;;;;;;;;;;;;;;;4378552;32;19985;-70
2021/01/04 04:14:07;;;;;;;;;;;;;;;;;;4366087;32;20362;-71
2021/01/04 04:16:32;;;;;;;;;;;;;;;;;;4353595;32;20013;-71
2021/01/04 04:18:58;;;;;;;;;;;;;;;;;;4378247;32;20359;-71
2021/01/04 04:21:24;;;;;;;;;;;;;;;;;;4392109;32;20061;-71
2021/01/04 04:23:49;;;;;;;;;;;;;;;;;;4378670;32;19982;-71
2021/01/04 04:26:18;;;;;;;;;;;;;;;;;;4378685;32;19981;-71
2021/01/04 04:28:44;;;;;;;;;;;;;;;;;;4353831;32;19982;-71
2021/01/04 04:31:10;;;;;;;;;;;;;;;;;;4378076;32;20481;-70
2021/01/04 04:33:36;;;;;;;;;;;;;;;;;;4388343;32;19974;-71
2021/01/04 04:36:01;;;;;;;;;;;;;;;;;;4393219;32;19988;-70
2021/01/04 04:38:27;;;;;;;;;;;;;;;;;;4393088;32;19983;-70
2021/01/04 04:40:53;;;;;;;;;;;;;;;;;;4393087;32;19981;-71
2021/01/04 04:43:26;;;;;;;;;;;;;;;;;;4392913;32;19985;-70
2021/01/04 04:45:52;;;;;;;;;;;;;;;;;;4380654;32;19966;-70
2021/01/04 04:48:33;;;;;;;;;;;;;;;;;;4382112;32;19976;-70
2021/01/04 04:51:05;;;;;;;;;;;;;;;;;;4394935;32;19993;-70
2021/01/04 04:53:45;;;;;;;;;;;;;;;;;;4407277;32;19974;-71
2021/01/04 04:56:11;;;;;;;;;;;;;;;;;;4407898;32;19973;-70
2021/01/04 04:58:39;;;;;;;;;;;;;;;;;;4410786;32;19992;-71
2021/01/04 05:01:13;;;;;;;;;;;;;;;;;;4396842;32;20057;-70
2021/01/04 05:03:46;;;;;;;;;;;;;;;;;;4368989;32;19970;-70
2021/01/04 05:06:30;;;;;;;;;;;;;;;;;;4368350;32;19969;-70
2021/01/04 05:09:25;;;;;;;;;;;;;;;;;;4407093;32;19973;-70
2021/01/04 05:12:20;;;;;;;;;;;;;;;;;;4390169;32;20388;-70
2021/01/04 05:14:57;;;;;;;;;;;;;;;;;;4376632;32;20381;-71
2021/01/04 05:17:25;;;;;;;;;;;;;;;;;;4382012;32;20081;-69
2021/01/04 05:20:02;;;;;;;;;;;;;;;;;;4410069;32;19991;-70
2021/01/04 05:22:28;;;;;;;;;;;;;;;;;;4410059;32;19984;-70
2021/01/04 05:25:12;;;;;;;;;;;;;;;;;;4395857;32;20354;-70
2021/01/04 05:27:53;;;;;;;;;;;;;;;;;;4395539;32;19977;-71
2021/01/04 05:30:21;;;;;;;;;;;;;;;;;;4383064;32;19977;-71
2021/01/04 05:33:05;;;;;;;;;;;;;;;;;;4395892;32;20049;-70
2021/01/04 05:35:32;;;;;;;;;;;;;;;;;;4409626;32;19984;-71
2021/01/04 05:38:27;;;;;;;;;;;;;;;;;;4383441;32;19981;-71
2021/01/04 05:40:52;;;;;;;;;;;;;;;;;;4379263;32;20052;-70
2021/01/04 05:43:18;;;;;;;;;;;;;;;;;;4383008;32;20368;-70
2021/01/04 05:45:53;;;;;;;;;;;;;;;;;;4395608;32;20036;-71
2021/01/04 05:48:37;;;;;;;;;;;;;;;;;;4376067;32;19985;-71
2021/01/04 05:51:12;;;;;;;;;;;;;;;;;;4394048;32;20041;-71
2021/01/04 05:53:38;;;;;;;;;;;;;;;;;;4394225;32;20367;-70
2021/01/04 05:56:04;;;;;;;;;;;;;;;;;;4367126;32;20371;-71
2021/01/04 05:58:31;;;;;;;;;;;;;;;;;;4379985;32;19997;-71
2021/01/04 06:01:07;;;;;;;;;;;;;;;;;;4379970;32;20121;-71
2021/01/04 06:03:33;;;;;;;;;;;;;;;;;;4379813;32;20056;-71
2021/01/04 06:06:06;;;;;;;;;;;;;;;;;;4367993;32;19981;-71
2021/01/04 06:08:31;;;;;;;;;;;;;;;;;;4355587;32;20021;-71
2021/01/04 06:11:12;;;;;;;;;;;;;;;;;;4379903;32;19985;-71
2021/01/04 06:13:43;;;;;;;;;;;;;;;;;;4354846;32;19974;-71
2021/01/04 06:16:12;;;;;;;;;;;;;;;;;;4367431;32;19966;-71
2021/01/04 06:18:48;;;;;;;;;;;;;;;;;;4392511;32;20036;-71
2021/01/04 06:21:34;;;;;;;;;;;;;;;;;;4382706;32;20065;-70
2021/01/04 06:24:00;;;;;;;;;;;;;;;;;;4381460;32;19979;-70
2021/01/04 06:26:26;;;;;;;;;;;;;;;;;;4382233;32;19969;-70
2021/01/04 06:28:53;;;;;;;;;;;;;;;;;;4394571;32;20066;-71
2021/01/04 06:31:26;;;;;;;;;;;;;;;;;;4394780;32;19988;-70
2021/01/04 06:33:56;;;;;;;;;;;;;;;;;;4369709;32;19976;-71
2021/01/04 06:36:22;;;;;;;;;;;;;;;;;;4382159;32;20069;-71
2021/01/04 06:38:47;;;;;;;;;;;;;;;;;;4409118;32;19993;-70
2021/01/04 06:41:17;;;;;;;;;;;;;;;;;;4369401;32;20106;-71
2021/01/04 06:43:43;;;;;;;;;;;;;;;;;;4408641;32;20003;-72
2021/01/04 06:46:27;;;;;;;;;;;;;;;;;;4382573;32;19981;-70
2021/01/04 06:48:56;;;;;;;;;;;;;;;;;;4396876;32;19989;-71
2021/01/04 06:51:21;;;;;;;;;;;;;;;;;;4379270;32;20003;-71
2021/01/04 06:53:57;;;;;;;;;;;;;;;;;;4379057;32;20423;-71
2021/01/04 06:56:40;;;;;;;;;;;;;;;;;;4366853;32;20054;-70
2021/01/04 06:59:24;;;;;;;;;;;;;;;;;;4379113;32;20078;-70
2021/01/04 07:01:52;;;;;;;;;;;;;;;;;;4379631;32;20356;-71
2021/01/04 07:04:51;;;;;;;;;;;;;;;;;;4379084;32;19974;-70
2021/01/04 07:07:20;;;;;;;;;;;;;;;;;;4379691;32;19970;-71
2021/01/04 07:09:45;;;;;;;;;;;;;;;;;;4393225;32;19985;-70
2021/01/04 07:12:15;;;;;;;;;;;;;;;;;;4366534;32;19989;-70
2021/01/04 07:14:45;;;;;;;;;;;;;;;;;;4354324;32;20054;-69
2021/01/04 07:17:25;;;;;;;;;;;;;;;;;;4354786;32;19972;-70
2021/01/04 07:20:10;;;;;;;;;;;;;;;;;;4367165;32;20112;-70
2021/01/04 07:22:54;;;;;;;;;;;;;;;;;;4366423;32;20415;-70
2021/01/04 07:25:33;;;;;;;;;;;;;;;;;;4379376;32;20084;-70
2021/01/04 07:28:23;;;;;;;;;;;;;;;;;;4366717;32;19977;-70
2021/01/04 07:30:55;;;;;;;;;;;;;;;;;;4370650;32;19980;-69
2021/01/04 07:33:24;;;;;;;;;;;;;;;;;;4387343;32;19972;-70
2021/01/04 07:35:57;;;;;;;;;;;;;;;;;;4407929;32;20355;-70
2021/01/04 07:38:23;;;;;;;;;;;;;;;;;;4393504;32;20403;-71
2021/01/04 07:41:07;;;;;;;;;;;;;;;;;;4408299;32;19981;-69
2021/01/04 07:43:46;;;;;;;;;;;;;;;;;;4407980;32;20376;-70
2021/01/04 07:46:12;;;;;;;;;;;;;;;;;;4368518;32;20399;-71
2021/01/04 07:48:57;;;;;;;;;;;;;;;;;;4393811;32;19988;-69
2021/01/04 07:51:25;;;;;;;;;;;;;;;;;;4394407;32;20004;-70
2021/01/04 07:54:01;;;;;;;;;;;;;;;;;;4407790;32;20380;-70
2021/01/04 07:56:40;;;;;;;;;;;;;;;;;;4380712;32;20405;-71
2021/01/04 07:59:24;;;;;;;;;;;;;;;;;;4381637;32;20053;-71
2021/01/04 08:01:50;;;;;;;;;;;;;;;;;;4407264;32;19989;-70
2021/01/04 08:04:21;;;;;;;;;;;;;;;;;;4407409;32;19985;-71
2021/01/04 08:06:53;;;;;;;;;;;;;;;;;;4407909;32;19978;-71
2021/01/04 08:09:37;;;;;;;;;;;;;;;;;;4407452;32;19989;-70
2021/01/04 08:12:26;;;;;;;;;;;;;;;;;;4407637;32;20459;-70
2021/01/04 08:14:57;;;;;;;;;;;;;;;;;;4368006;32;19988;-70
2021/01/04 08:17:52;;;;;;;;;;;;;;;;;;4368184;32;20041;-70
2021/01/04 08:20:18;;;;;;;;;;;;;;;;;;4390544;32;19965;-70
2021/01/04 08:22:47;;;;;;;;;;;;;;;;;;4380658;32;19988;-69
2021/01/04 08:25:16;;;;;;;;;;;;;;;;;;4393264;32;19972;-70
2021/01/04 08:27:44;;;;;;;;;;;;;;;;;;4368394;32;20367;-70
2021/01/04 08:30:14;;;;;;;;;;;;;;;;;;4380517;32;20073;-70
2021/01/04 08:32:58;;;;;;;;;;;;;;;;;;4380388;32;20344;-71
2021/01/04 08:35:27;;;;;;;;;;;;;;;;;;4392518;32;20057;-70
2021/01/04 08:37:52;;;;;;;;;;;;;;;;;;4407185;32;19989;-69
2021/01/04 08:40:18;;;;;;;;;;;;;;;;;;4407329;32;19989;-69
2021/01/04 08:42:44;;;;;;;;;;;;;;;;;;4380176;32;19969;-71
2021/01/04 08:45:10;;;;;;;;;;;;;;;;;;4367967;32;20115;-69
2021/01/04 08:47:42;;;;;;;;;;;;;;;;;;4376852;32;19982;-71
2021/01/04 08:50:27;;;;;;;;;;;;;;;;;;4365593;32;19977;-71
2021/01/04 08:52:54;;;;;;;;;;;;;;;;;;4378025;32;19970;-71
2021/01/04 08:57:30;;;;;;;;;;;;;;;;;;3811411;37;19947;-71
2021/01/04 08:59:58;;;;;;;;;;;;;;;;;;4376652;32;19978;-70
2021/01/04 09:02:32;;;;;;;;;;;;;;;;;;4388673;32;20090;-69
2021/01/04 09:04:58;;;;;;;;;;;;;;;;;;4375484;32;19998;-71
2021/01/04 09:07:24;;;;;;;;;;;;;;;;;;4388621;32;20435;-70
2021/01/04 09:09:51;;;;;;;;;;;;;;;;;;4376228;32;19969;-70
2021/01/04 09:12:33;;;;;;;;;;;;;;;;;;4363243;32;19986;-70
2021/01/04 09:14:59;;;;;;;;;;;;;;;;;;4363466;32;19974;-70
2021/01/04 09:17:28;;;;;;;;;;;;;;;;;;4387775;32;19982;-70
2021/01/04 09:20:20;;;;;;;;;;;;;;;;;;4389844;32;19994;-71
2021/01/04 09:22:49;;;;;;;;;;;;;;;;;;4365579;32;19978;-70
2021/01/04 09:25:37;;;;;;;;;;;;;;;;;;4387978;32;20054;-69
2021/01/04 09:28:03;;;;;;;;;;;;;;;;;;4367436;32;20000;-64
2021/01/04 09:30:28;;;;;;;;;;;;;;;;;;4375746;32;20369;-66
2021/01/04 09:33:04;;;;;;;;;;;;;;;;;;4381744;32;20143;-66
2021/01/04 09:35:30;;;;;;;;;;;;;;;;;;4347997;32;20387;-67
2021/01/04 09:38:00;;;;;;;;;;;;;;;;;;4373614;32;19974;-67
2021/01/04 09:40:25;;;;;;;;;;;;;;;;;;4360515;32;20643;-68
2021/01/04 09:42:51;;;;;;;;;;;;;;;;;;4348207;32;20064;-67
2021/01/04 09:45:18;;;;;;;;;;;;;;;;;;4360643;32;20041;-69
2021/01/04 09:47:44;;;;;;;;;;;;;;;;;;4352244;32;19981;-66
2021/01/04 09:50:28;;;;;;;;;;;;;;;;;;4375654;32;19989;-68
2021/01/04 09:53:04;;;;;;;;;;;;;;;;;;4375264;32;19994;-66
2021/01/04 09:55:31;;;;;;;;;;;;;;;;;;4376697;32;20062;-67
2021/01/04 09:57:58;;;;;;;;;;;;;;;;;;4365145;32;19969;-67
2021/01/04 10:00:25;;;;;;;;;;;;;;;;;;4377740;32;20073;-67
2021/01/04 10:03:01;;;;;;;;;;;;;;;;;;4390125;32;19984;-68
2021/01/04 10:05:31;;;;;;;;;;;;;;;;;;4390027;32;19992;-67
2021/01/04 10:07:57;;;;;;;;;;;;;;;;;;4370859;32;19993;-69
2021/01/04 10:10:22;;;;;;;;;;;;;;;;;;4380065;32;20363;-70
2021/01/04 10:12:48;;;;;;;;;;;;;;;;;;4394159;32;19984;-70
2021/01/04 10:15:23;;;;;;;;;;;;;;;;;;4367451;32;19996;-71
2021/01/04 10:17:53;;;;;;;;;;;;;;;;;;4367117;32;19978;-71
2021/01/04 10:20:39;;;;;;;;;;;;;;;;;;4355248;32;20069;-70
2021/01/04 10:23:05;;;;;;;;;;;;;;;;;;4367606;32;20001;-66
2021/01/04 10:25:34;;;;;;;;;;;;;;;;;;4367287;32;20385;-66
2021/01/04 10:28:00;;;;;;;;;;;;;;;;;;4354654;32;19978;-71
2021/01/04 10:30:26;;;;;;;;;;;;;;;;;;4367378;32;19990;-71
2021/01/04 10:33:02;;;;;;;;;;;;;;;;;;4364372;32;20000;-68
2021/01/04 10:35:27;;;;;;;;;;;;;;;;;;4352227;32;20001;-69
2021/01/04 10:37:53;;;;;;;;;;;;;;;;;;4376969;32;20356;-67
2021/01/04 10:40:21;;;;;;;;;;;;;;;;;;4364798;32;20061;-69
2021/01/04 10:42:47;;;;;;;;;;;;;;;;;;4364330;32;19970;-73
2021/01/04 10:45:19;;;;;;;;;;;;;;;;;;4364800;32;20121;-70
2021/01/04 10:47:58;;;;;;;;;;;;;;;;;;4354405;32;19985;-67
2021/01/04 10:50:34;;;;;;;;;;;;;;;;;;4354576;32;19976;-70
2021/01/04 10:53:01;;;;;;;;;;;;;;;;;;4354653;32;20050;-70
2021/01/04 10:55:28;;;;;;;;;;;;;;;;;;4366764;32;20058;-69
2021/01/04 10:58:08;;;;;;;;;;;;;;;;;;4366527;32;19976;-70
2021/01/04 11:00:34;;;;;;;;;;;;;;;;;;4354274;32;19970;-69
2021/01/04 11:03:06;;;;;;;;;;;;;;;;;;4379104;32;20008;-71
2021/01/04 11:05:33;;;;;;;;;;;;;;;;;;4353869;32;19978;-70
2021/01/04 11:08:08;;;;;;;;;;;;;;;;;;4379140;32;19987;-68
2021/01/04 11:10:34;;;;;;;;;;;;;;;;;;4366523;32;20012;-70
2021/01/04 11:12:59;;;;;;;;;;;;;;;;;;4392642;32;19982;-70
2021/01/04 11:15:25;;;;;;;;;;;;;;;;;;4378883;32;20359;-69
2021/01/04 11:17:57;;;;;;;;;;;;;;;;;;4378625;32;19978;-70
2021/01/04 11:20:22;;;;;;;;;;;;;;;;;;4391972;32;19978;-69
2021/01/04 11:22:58;;;;;;;;;;;;;;;;;;4379044;32;19977;-68
2021/01/04 11:25:23;;;;;;;;;;;;;;;;;;4367395;32;19977;-67
2021/01/04 11:27:49;;;;;;;;;;;;;;;;;;4379167;32;20443;-66
2021/01/04 11:30:15;;;;;;;;;;;;;;;;;;4378622;32;20379;-69
2021/01/04 11:32:41;;;;;;;;;;;;;;;;;;4363670;32;19974;-68
2021/01/04 11:35:07;;;;;;;;;;;;;;;;;;4377865;32;19989;-70
2021/01/04 11:37:33;;;;;;;;;;;;;;;;;;4378096;32;19985;-71
2021/01/04 11:39:58;;;;;;;;;;;;;;;;;;4365822;32;20343;-70
2021/01/04 11:42:24;;;;;;;;;;;;;;;;;;4380366;32;20416;-71
2021/01/04 11:44:49;;;;;;;;;;;;;;;;;;4380770;32;19989;-73
2021/01/04 11:47:15;;;;;;;;;;;;;;;;;;4352891;32;19975;-73
2021/01/04 11:49:41;;;;;;;;;;;;;;;;;;4364306;32;19985;-73
2021/01/04 11:52:06;;;;;;;;;;;;;;;;;;4363566;32;20038;-74
2021/01/04 11:54:32;;;;;;;;;;;;;;;;;;4364163;32;20056;-73
2021/01/04 11:56:57;;;;;;;;;;;;;;;;;;4351657;32;19993;-72
2021/01/04 11:59:23;;;;;;;;;;;;;;;;;;4363754;32;20054;-73
2021/01/04 12:01:49;;;;;;;;;;;;;;;;;;4377559;32;19982;-74
2021/01/04 12:04:14;;;;;;;;;;;;;;;;;;4363887;32;20387;-72
2021/01/04 12:06:40;;;;;;;;;;;;;;;;;;4363375;32;20356;-74
2021/01/04 12:09:06;;;;;;;;;;;;;;;;;;4350919;32;19971;-74
2021/01/04 12:11:35;;;;;;;;;;;;;;;;;;4363585;32;19985;-72
2021/01/04 12:14:01;;;;;;;;;;;;;;;;;;4363805;32;19986;-70
2021/01/04 12:16:27;;;;;;;;;;;;;;;;;;4363021;32;19993;-73
2021/01/04 12:18:52;;;;;;;;;;;;;;;;;;4363503;32;20091;-71
2021/01/04 12:21:24;;;;;;;;;;;;;;;;;;4363376;32;19993;-71
2021/01/04 12:23:50;;;;;;;;;;;;;;;;;;4363732;32;19986;-72
2021/01/04 12:26:16;;;;;;;;;;;;;;;;;;4363561;32;19974;-72
2021/01/04 12:28:41;;;;;;;;;;;;;;;;;;4363739;32;20087;-71
2021/01/04 12:31:07;;;;;;;;;;;;;;;;;;4350752;32;19977;-71
2021/01/04 12:33:32;;;;;;;;;;;;;;;;;;4361026;32;19989;-71
2021/01/04 12:35:58;;;;;;;;;;;;;;;;;;4353468;32;20007;-71
2021/01/04 12:38:23;;;;;;;;;;;;;;;;;;4378125;32;19992;-71
2021/01/04 12:40:49;;;;;;;;;;;;;;;;;;4377961;32;20077;-71
2021/01/04 12:43:15;;;;;;;;;;;;;;;;;;4377837;32;19970;-71
2021/01/04 12:45:40;;;;;;;;;;;;;;;;;;4365420;32;19985;-71
2021/01/04 12:48:06;;;;;;;;;;;;;;;;;;4372461;32;20063;-71
2021/01/04 12:50:31;;;;;;;;;;;;;;;;;;4363263;32;19990;-71
2021/01/04 12:52:57;;;;;;;;;;;;;;;;;;4376917;32;19993;-71
2021/01/04 12:55:24;;;;;;;;;;;;;;;;;;4363025;32;20057;-72
2021/01/04 12:57:49;;;;;;;;;;;;;;;;;;4376656;32;19978;-72
2021/01/04 13:00:21;;;;;;;;;;;;;;;;;;4362792;32;20066;-71
2021/01/04 13:02:47;;;;;;;;;;;;;;;;;;4363762;32;19974;-71
2021/01/04 13:05:13;;;;;;;;;;;;;;;;;;4362800;32;20009;-71
2021/01/04 13:07:38;;;;;;;;;;;;;;;;;;4362850;32;20059;-70
2021/01/04 13:10:08;;;;;;;;;;;;;;;;;;4376938;32;19981;-71
2021/01/04 13:12:34;;;;;;;;;;;;;;;;;;4350612;32;19982;-72
2021/01/04 13:14:59;;;;;;;;;;;;;;;;;;4363002;32;20016;-71
2021/01/04 13:17:25;;;;;;;;;;;;;;;;;;4362757;32;19998;-71
2021/01/04 13:19:50;;;;;;;;;;;;;;;;;;4362739;32;20009;-71
2021/01/04 13:22:16;;;;;;;;;;;;;;;;;;4376565;32;19974;-71
2021/01/04 13:24:42;;;;;;;;;;;;;;;;;;4362407;32;20017;-71
2021/01/04 13:27:07;;;;;;;;;;;;;;;;;;4363127;32;19974;-71
2021/01/04 13:29:33;;;;;;;;;;;;;;;;;;4362649;32;20418;-71
2021/01/04 13:32:05;;;;;;;;;;;;;;;;;;4363049;32;20033;-72
2021/01/04 13:34:31;;;;;;;;;;;;;;;;;;4337808;32;20450;-71
2021/01/04 13:36:57;;;;;;;;;;;;;;;;;;4351001;32;19981;-71
2021/01/04 13:39:23;;;;;;;;;;;;;;;;;;4363017;32;20389;-70
2021/01/04 13:41:49;;;;;;;;;;;;;;;;;;4350651;32;19993;-71
2021/01/04 13:44:15;;;;;;;;;;;;;;;;;;4353500;32;20085;-72
2021/01/04 13:46:40;;;;;;;;;;;;;;;;;;4341130;32;20423;-71
2021/01/04 13:49:06;;;;;;;;;;;;;;;;;;4380052;32;19978;-71
2021/01/04 13:51:31;;;;;;;;;;;;;;;;;;4370302;32;19993;-72
2021/01/04 13:53:57;;;;;;;;;;;;;;;;;;4389838;32;20075;-71
2021/01/04 13:56:23;;;;;;;;;;;;;;;;;;4364051;32;20043;-71
2021/01/04 13:58:48;;;;;;;;;;;;;;;;;;4375024;32;20448;-71
2021/01/04 14:01:19;;;;;;;;;;;;;;;;;;4383628;32;19994;-70
2021/01/04 14:03:44;;;;;;;;;;;;;;;;;;4355108;32;20086;-71
2021/01/04 14:06:10;;;;;;;;;;;;;;;;;;4341075;32;20410;-72
2021/01/04 14:08:35;;;;;;;;;;;;;;;;;;4356121;32;20051;-71
2021/01/04 14:11:01;;;;;;;;;;;;;;;;;;4356249;32;19990;-72
2021/01/04 14:13:26;;;;;;;;;;;;;;;;;;4379230;32;19989;-72
2021/01/04 14:15:52;;;;;;;;;;;;;;;;;;4379435;32;19989;-71
2021/01/04 14:20:57;;;;;;;;;;;;;;;;;;3857759;37;19957;-71
2021/01/04 14:23:23;;;;;;;;;;;;;;;;;;4393927;32;19965;-72
2021/01/04 14:25:48;;;;;;;;;;;;;;;;;;4406349;32;19981;-72
2021/01/04 14:28:14;;;;;;;;;;;;;;;;;;4393468;32;19980;-71
2021/01/04 14:30:39;;;;;;;;;;;;;;;;;;4420135;32;20045;-72
2021/01/04 14:33:05;;;;;;;;;;;;;;;;;;4413343;32;19974;-72
2021/01/04 14:35:31;;;;;;;;;;;;;;;;;;4378734;32;20066;-70
2021/01/04 14:37:56;;;;;;;;;;;;;;;;;;4403489;32;19978;-71
2021/01/04 14:40:22;;;;;;;;;;;;;;;;;;4378205;32;20061;-72
2021/01/04 14:42:47;;;;;;;;;;;;;;;;;;4403989;32;19984;-72
2021/01/04 14:45:13;;;;;;;;;;;;;;;;;;4403449;32;20061;-71
2021/01/04 14:47:39;;;;;;;;;;;;;;;;;;4405785;32;19981;-72
2021/01/04 14:50:05;;;;;;;;;;;;;;;;;;4420534;32;20050;-72
2021/01/04 14:52:31;;;;;;;;;;;;;;;;;;4393996;32;19999;-70
2021/01/04 14:54:57;;;;;;;;;;;;;;;;;;4406036;32;20354;-71
2021/01/04 14:57:23;;;;;;;;;;;;;;;;;;4405948;32;20424;-70
2021/01/04 14:59:49;;;;;;;;;;;;;;;;;;4405984;32;19977;-71
2021/01/04 15:02:17;;;;;;;;;;;;;;;;;;4419769;32;19993;-71
2021/01/04 15:04:44;;;;;;;;;;;;;;;;;;4403178;32;20054;-72
2021/01/04 15:07:10;;;;;;;;;;;;;;;;;;4390674;32;19973;-71
2021/01/04 15:09:36;;;;;;;;;;;;;;;;;;4390866;32;19977;-71
2021/01/04 15:12:02;;;;;;;;;;;;;;;;;;4391107;32;19978;-74
2021/01/04 15:14:28;;;;;;;;;;;;;;;;;;4390404;32;19997;-71
2021/01/04 15:16:53;;;;;;;;;;;;;;;;;;4390447;32;19981;-71
2021/01/04 15:19:19;;;;;;;;;;;;;;;;;;4402476;32;20005;-71
2021/01/04 15:21:45;;;;;;;;;;;;;;;;;;4390244;32;20052;-72
2021/01/04 15:24:11;;;;;;;;;;;;;;;;;;4403534;32;20073;-72
2021/01/04 15:26:36;;;;;;;;;;;;;;;;;;4404289;32;19970;-71
2021/01/04 15:29:02;;;;;;;;;;;;;;;;;;4390322;32;19981;-72
2021/01/04 15:31:28;;;;;;;;;;;;;;;;;;4398215;32;20043;-71
2021/01/04 15:33:53;;;;;;;;;;;;;;;;;;4394057;32;19978;-71
2021/01/04 15:36:19;;;;;;;;;;;;;;;;;;4379708;32;20054;-70
2021/01/04 15:38:45;;;;;;;;;;;;;;;;;;4392590;32;20368;-71
2021/01/04 15:41:11;;;;;;;;;;;;;;;;;;4392316;32;19990;-71
2021/01/04 15:43:36;;;;;;;;;;;;;;;;;;4392759;32;19982;-71
2021/01/04 15:46:04;;;;;;;;;;;;;;;;;;4392908;32;20000;-71
2021/01/04 15:48:29;;;;;;;;;;;;;;;;;;4365161;32;19993;-71
2021/01/04 15:50:55;;;;;;;;;;;;;;;;;;4378474;32;20365;-71
2021/01/04 15:53:21;;;;;;;;;;;;;;;;;;4377618;32;20400;-70
2021/01/04 15:55:46;;;;;;;;;;;;;;;;;;4377219;32;20415;-71
2021/01/04 15:58:12;;;;;;;;;;;;;;;;;;4377434;32;19978;-70
2021/01/04 16:00:37;;;;;;;;;;;;;;;;;;4378728;32;19974;-71
2021/01/04 16:03:03;;;;;;;;;;;;;;;;;;4378906;32;19981;-71
2021/01/04 16:05:29;;;;;;;;;;;;;;;;;;4378905;32;19994;-71
2021/01/04 16:07:54;;;;;;;;;;;;;;;;;;4377448;32;20018;-71
2021/01/04 16:10:20;;;;;;;;;;;;;;;;;;4377419;32;20094;-71
2021/01/04 16:12:46;;;;;;;;;;;;;;;;;;4378898;32;19990;-71
2021/01/04 16:15:11;;;;;;;;;;;;;;;;;;4352680;32;19977;-71
2021/01/04 16:17:37;;;;;;;;;;;;;;;;;;4365683;32;19997;-71
2021/01/04 16:20:03;;;;;;;;;;;;;;;;;;4363816;32;19990;-72
2021/01/04 16:22:29;;;;;;;;;;;;;;;;;;4364702;32;19982;-71
2021/01/04 16:24:54;;;;;;;;;;;;;;;;;;4376800;32;20419;-71
2021/01/04 16:27:20;;;;;;;;;;;;;;;;;;4376708;32;20409;-71
2021/01/04 16:29:46;;;;;;;;;;;;;;;;;;4376956;32;19982;-72
2021/01/04 16:32:12;;;;;;;;;;;;;;;;;;4379992;32;19985;-72
2021/01/04 16:34:38;;;;;;;;;;;;;;;;;;4379649;32;20070;-71
2021/01/04 16:37:08;;;;;;;;;;;;;;;;;;4379418;32;20028;-70
2021/01/04 16:39:35;;;;;;;;;;;;;;;;;;4367008;32;19970;-71
2021/01/04 16:42:01;;;;;;;;;;;;;;;;;;4366056;32;19974;-71
2021/01/04 16:44:27;;;;;;;;;;;;;;;;;;4378768;32;19980;-72
2021/01/04 16:46:52;;;;;;;;;;;;;;;;;;4393188;32;19981;-72
2021/01/04 16:49:18;;;;;;;;;;;;;;;;;;4365997;32;19989;-71
2021/01/04 16:51:44;;;;;;;;;;;;;;;;;;4391968;32;20081;-71
2021/01/04 16:54:10;;;;;;;;;;;;;;;;;;4392073;32;19982;-71
2021/01/04 16:56:36;;;;;;;;;;;;;;;;;;4391652;32;19977;-70
2021/01/04 16:59:01;;;;;;;;;;;;;;;;;;4391604;32;20353;-71
2021/01/04 17:01:27;;;;;;;;;;;;;;;;;;4378919;32;20388;-72
2021/01/04 17:03:53;;;;;;;;;;;;;;;;;;4392631;32;20062;-71
2021/01/04 17:06:18;;;;;;;;;;;;;;;;;;4391140;32;20055;-71
2021/01/04 17:08:47;;;;;;;;;;;;;;;;;;4378887;32;19977;-71